Slotergracht — PDBP — position and weather

sailwx.info

Track history (hours):
 
Tides and Currents Weather Stations Pressure Air Temp Water Temp Dewpoint Dewpoint Depression Visibility Wind Speed Wind Dir Waves Ship Positions

Slotergracht

Last reported at 2016-Feb-08 16:33 UTC. Time now 2016-Feb-08 17:00 UTC.
Position N 53°27' E 006°50'.

Length 168 m; beam 25 m.

Type: Cargo ship. MMSI: 246456000.

Date/timePositionNaut miles runAvg speedWind from/ knotsBaromVisibWave heightAir tempDewpointWater temp
2016-Feb-08 16:33N 53°27' E 006°50'0 0.0
2016-Feb-08 15:32N 53°27' E 006°50'0 0.0
2016-Feb-08 14:34N 53°27' E 006°50'0 0.0
2016-Feb-08 13:34N 53°27' E 006°50'0 0.0
2016-Feb-08 12:34N 53°27' E 006°50'0 0.0
2016-Feb-08 11:33N 53°27' E 006°50'0 0.0
2016-Feb-08 10:33N 53°27' E 006°50'0 0.0
2016-Feb-08 09:33N 53°27' E 006°50'0 0.0
2016-Feb-08 08:33N 53°27' E 006°50'0 0.0
2016-Feb-08 07:33N 53°27' E 006°50'0 0.0
2016-Feb-08 06:33N 53°27' E 006°50'0 0.0
2016-Feb-08 05:33N 53°27' E 006°50'0 0.0
2016-Feb-08 04:33N 53°27' E 006°50'0 0.0
2016-Feb-08 03:33N 53°27' E 006°50'0 0.0
2016-Feb-08 02:33N 53°27' E 006°50'0 0.0
2016-Feb-08 01:30N 53°27' E 006°50'0 0.0
2016-Feb-08 00:33N 53°27' E 006°50'0 0.0
2016-Feb-07 23:33N 53°27' E 006°50'0 0.0
2016-Feb-07 22:33N 53°27' E 006°50'0 0.0
2016-Feb-07 21:33N 53°27' E 006°50'0 0.0
2016-Feb-07 20:34N 53°27' E 006°50'0 0.0
2016-Feb-07 19:33N 53°27' E 006°50'0 0.0
2016-Feb-07 18:33N 53°27' E 006°50'0 0.0
2016-Feb-07 17:33N 53°27' E 006°50'0 0.0
2016-Feb-07 16:33N 53°27' E 006°50'0 0.0
2016-Feb-07 15:33N 53°27' E 006°50'0 0.0
2016-Feb-07 14:33N 53°27' E 006°50'0 0.0
2016-Feb-07 13:33N 53°27' E 006°50'0 0.0
2016-Feb-07 12:33N 53°27' E 006°50'0 0.0
2016-Feb-07 11:33N 53°27' E 006°50'0 0.0
2016-Feb-07 10:33N 53°27' E 006°50'0 0.0
2016-Feb-07 09:33N 53°27' E 006°50'0 0.0
2016-Feb-07 08:33N 53°27' E 006°50'0 0.0
2016-Feb-07 07:33N 53°27' E 006°50'0 0.0
2016-Feb-07 06:33N 53°27' E 006°50'0 0.0
2016-Feb-07 05:33N 53°27' E 006°50'0 0.0
2016-Feb-07 04:33N 53°27' E 006°50'0 0.0
2016-Feb-07 03:33N 53°27' E 006°50'0 0.0
2016-Feb-07 02:33N 53°27' E 006°50'0 0.0
2016-Feb-07 01:32N 53°27' E 006°50'0 0.0
2016-Feb-07 00:33N 53°27' E 006°50'0 0.0
2016-Feb-06 23:33N 53°27' E 006°50'0 0.0
2016-Feb-06 22:32N 53°27' E 006°50'0 0.0
2016-Feb-06 21:32N 53°27' E 006°50'0 0.0
2016-Feb-06 20:33N 53°27' E 006°50'1 1.3
2016-Feb-06 19:33N 53°28' E 006°50'7 7.3
2016-Feb-06 18:33N 53°33' E 006°41'8 8.5
2016-Feb-06 17:33N 53°37' E 006°28'7 7.5
2016-Feb-06 16:34N 53°43' E 006°21'1212.5
2016-Feb-06 15:34N 53°55' E 006°21'1912.7
2016-Feb-06 14:04N 54°14' E 006°20'3313.2
2016-Feb-06 11:31N 54°45' E 006°43'1313.4
2016-Feb-06 10:34N 54°57' E 006°52'1514.6
2016-Feb-06 09:33N 55°11' E 007°00'1514.8
2016-Feb-06 08:33N 55°25' E 007°03'1515.5
2016-Feb-06 07:33N 55°40' E 007°13'7614.9
2016-Feb-06 02:29N 56°52' E 007°58'9715.5
2016-Feb-05 20:14N 57°49' E 010°22'1217.0
2016-Feb-05 19:33N 57°49' E 010°43'9 9.2
2016-Feb-05 18:32N 57°40' E 010°43'0 0.0
2016-Feb-05 17:20N 57°40' E 010°43'0 0.0
2016-Feb-05 16:32N 57°40' E 010°43'0 0.0
2016-Feb-05 13:29N 57°40' E 010°43'0 0.1
2016-Feb-05 12:32N 57°40' E 010°43'0 0.0
2016-Feb-05 11:29N 57°40' E 010°43'3 3.5
2016-Feb-05 10:33N 57°39' E 010°49'1716.8
2016-Feb-05 09:33N 57°32' E 011°17'1717.3
2016-Feb-05 08:34N 57°17' E 011°34'1817.5
2016-Feb-05 07:33N 57°01' E 011°45'1717.1
2016-Feb-05 06:34N 56°44' E 011°53'8516.4
2016-Feb-05 01:24N 55°25' E 010°59'1416.1
2016-Feb-05 00:33N 55°12' E 011°06'1515.6
2016-Feb-04 23:34N 54°58' E 010°56'1616.0
2016-Feb-04 22:34N 54°43' E 010°47'1514.9
2016-Feb-04 21:33N 54°36' E 011°10'1615.7
2016-Feb-04 20:34N 54°29' E 011°34'1615.9
2016-Feb-04 19:33N 54°26' E 012°01'1514.5
2016-Feb-04 18:34N 54°37' E 012°17'5217.2
2016-Feb-04 15:33N 54°59' E 013°39'1717.1
2016-Feb-04 14:33N 55°06' E 014°06'1717.5
2016-Feb-04 13:33N 55°19' E 014°25'1817.5
2016-Feb-04 12:33N 55°31' E 014°48'1717.5
2016-Feb-04 11:33N 55°40' E 015°15'10616.5
2016-Feb-04 05:09N 56°60' E 017°19'1017.4
2016-Feb-04 04:33N 57°10' E 017°27'1817.8
2016-Feb-04 03:34N 57°26' E 017°39'6016.9
2016-Feb-04 00:00N 58°18' E 018°36'   290 / 10999.910.8 0.5 5.8 0.511.9
2016-Jan-31 15:33N 60°10' E 019°10'16516.2
2016-Jan-31 05:19N 57°30' E 017°50'1418.6
2016-Jan-31 04:34N 57°16' E 017°41'1918.6
2016-Jan-31 03:34N 56°59' E 017°28'10617.6
2016-Jan-30 21:33N 55°37' E 015°29'1919.3
2016-Jan-30 20:33N 55°28' E 014°59'1918.6
2016-Jan-30 19:33N 55°17' E 014°32'1918.9
2016-Jan-30 18:33N 55°03' E 014°10'1818.4
2016-Jan-30 17:33N 54°56' E 013°41'1918.7
2016-Jan-30 16:33N 54°50' E 013°10'1918.6
2016-Jan-30 15:33N 54°43' E 012°40'1817.8
2016-Jan-30 14:33N 54°31' E 012°17'1616.1
2016-Jan-30 13:33N 54°24' E 011°52'1919.2
2016-Jan-30 12:34N 54°32' E 011°21'1919.0
2016-Jan-30 11:34N 54°41' E 010°52'1717.3
2016-Jan-30 10:34N 54°58' E 010°58'1818.0
2016-Jan-30 09:33N 55°16' E 011°04'7915.9
2016-Jan-30 04:33N 56°33' E 011°39'1616.0
2016-Jan-30 03:33N 56°47' E 011°51'1817.7
2016-Jan-30 02:33N 57°04' E 011°40'1817.5
2016-Jan-30 01:33N 57°20' E 011°29'1717.5
2016-Jan-30 00:33N 57°35' E 011°10'1818.2
2016-Jan-29 23:33N 57°47' E 010°45'  
Track history (hours):
 
Tides and Currents Weather Stations Pressure Air Temp Water Temp Dewpoint Dewpoint Depression Visibility Wind Speed Wind Dir Waves Ship Positions

Slotergracht

Last reported at 2016-Feb-08 16:33 UTC. Time now 2016-Feb-08 17:00 UTC.
Position N 53°27' E 006°50'.

Length 168 m; beam 25 m.

Type: Cargo ship. MMSI: 246456000.

Date/timePositionNaut miles runAvg speedWind from/ knotsBaromVisibWave heightAir tempDewpointWater temp
2016-Feb-08 16:33N 53°27' E 006°50'0 0.0
2016-Feb-08 15:32N 53°27' E 006°50'0 0.0
2016-Feb-08 14:34N 53°27' E 006°50'0 0.0
2016-Feb-08 13:34N 53°27' E 006°50'0 0.0
2016-Feb-08 12:34N 53°27' E 006°50'0 0.0
2016-Feb-08 11:33N 53°27' E 006°50'0 0.0
2016-Feb-08 10:33N 53°27' E 006°50'0 0.0
2016-Feb-08 09:33N 53°27' E 006°50'0 0.0
2016-Feb-08 08:33N 53°27' E 006°50'0 0.0
2016-Feb-08 07:33N 53°27' E 006°50'0 0.0
2016-Feb-08 06:33N 53°27' E 006°50'0 0.0
2016-Feb-08 05:33N 53°27' E 006°50'0 0.0
2016-Feb-08 04:33N 53°27' E 006°50'0 0.0
2016-Feb-08 03:33N 53°27' E 006°50'0 0.0
2016-Feb-08 02:33N 53°27' E 006°50'0 0.0
2016-Feb-08 01:30N 53°27' E 006°50'0 0.0
2016-Feb-08 00:33N 53°27' E 006°50'0 0.0
2016-Feb-07 23:33N 53°27' E 006°50'0 0.0
2016-Feb-07 22:33N 53°27' E 006°50'0 0.0
2016-Feb-07 21:33N 53°27' E 006°50'0 0.0
2016-Feb-07 20:34N 53°27' E 006°50'0 0.0
2016-Feb-07 19:33N 53°27' E 006°50'0 0.0
2016-Feb-07 18:33N 53°27' E 006°50'0 0.0
2016-Feb-07 17:33N 53°27' E 006°50'0 0.0
2016-Feb-07 16:33N 53°27' E 006°50'0 0.0
2016-Feb-07 15:33N 53°27' E 006°50'0 0.0
2016-Feb-07 14:33N 53°27' E 006°50'0 0.0
2016-Feb-07 13:33N 53°27' E 006°50'0 0.0
2016-Feb-07 12:33N 53°27' E 006°50'0 0.0
2016-Feb-07 11:33N 53°27' E 006°50'0 0.0
2016-Feb-07 10:33N 53°27' E 006°50'0 0.0
2016-Feb-07 09:33N 53°27' E 006°50'0 0.0
2016-Feb-07 08:33N 53°27' E 006°50'0 0.0
2016-Feb-07 07:33N 53°27' E 006°50'0 0.0
2016-Feb-07 06:33N 53°27' E 006°50'0 0.0
2016-Feb-07 05:33N 53°27' E 006°50'0 0.0
2016-Feb-07 04:33N 53°27' E 006°50'0 0.0
2016-Feb-07 03:33N 53°27' E 006°50'0 0.0
2016-Feb-07 02:33N 53°27' E 006°50'0 0.0
2016-Feb-07 01:32N 53°27' E 006°50'0 0.0
2016-Feb-07 00:33N 53°27' E 006°50'0 0.0
2016-Feb-06 23:33N 53°27' E 006°50'0 0.0
2016-Feb-06 22:32N 53°27' E 006°50'0 0.0
2016-Feb-06 21:32N 53°27' E 006°50'0 0.0
2016-Feb-06 20:33N 53°27' E 006°50'1 1.3
2016-Feb-06 19:33N 53°28' E 006°50'7 7.3
2016-Feb-06 18:33N 53°33' E 006°41'8 8.5
2016-Feb-06 17:33N 53°37' E 006°28'7 7.5
2016-Feb-06 16:34N 53°43' E 006°21'1212.5
2016-Feb-06 15:34N 53°55' E 006°21'1912.7
2016-Feb-06 14:04N 54°14' E 006°20'3313.2
2016-Feb-06 11:31N 54°45' E 006°43'1313.4
2016-Feb-06 10:34N 54°57' E 006°52'1514.6
2016-Feb-06 09:33N 55°11' E 007°00'1514.8
2016-Feb-06 08:33N 55°25' E 007°03'1515.5
2016-Feb-06 07:33N 55°40' E 007°13'7614.9
2016-Feb-06 02:29N 56°52' E 007°58'9715.5
2016-Feb-05 20:14N 57°49' E 010°22'1217.0
2016-Feb-05 19:33N 57°49' E 010°43'9 9.2
2016-Feb-05 18:32N 57°40' E 010°43'0 0.0
2016-Feb-05 17:20N 57°40' E 010°43'0 0.0
2016-Feb-05 16:32N 57°40' E 010°43'0 0.0
2016-Feb-05 13:29N 57°40' E 010°43'0 0.1
2016-Feb-05 12:32N 57°40' E 010°43'0 0.0
2016-Feb-05 11:29N 57°40' E 010°43'3 3.5
2016-Feb-05 10:33N 57°39' E 010°49'1716.8
2016-Feb-05 09:33N 57°32' E 011°17'1717.3
2016-Feb-05 08:34N 57°17' E 011°34'1817.5
2016-Feb-05 07:33N 57°01' E 011°45'1717.1
2016-Feb-05 06:34N 56°44' E 011°53'8516.4
2016-Feb-05 01:24N 55°25' E 010°59'1416.1
2016-Feb-05 00:33N 55°12' E 011°06'1515.6
2016-Feb-04 23:34N 54°58' E 010°56'1616.0
2016-Feb-04 22:34N 54°43' E 010°47'1514.9
2016-Feb-04 21:33N 54°36' E 011°10'1615.7
2016-Feb-04 20:34N 54°29' E 011°34'1615.9
2016-Feb-04 19:33N 54°26' E 012°01'1514.5
2016-Feb-04 18:34N 54°37' E 012°17'5217.2
2016-Feb-04 15:33N 54°59' E 013°39'1717.1
2016-Feb-04 14:33N 55°06' E 014°06'1717.5
2016-Feb-04 13:33N 55°19' E 014°25'1817.5
2016-Feb-04 12:33N 55°31' E 014°48'1717.5
2016-Feb-04 11:33N 55°40' E 015°15'10616.5
2016-Feb-04 05:09N 56°60' E 017°19'1017.4
2016-Feb-04 04:33N 57°10' E 017°27'1817.8
2016-Feb-04 03:34N 57°26' E 017°39'6016.9
2016-Feb-04 00:00N 58°18' E 018°36'   290 / 10999.910.8 0.5 5.8 0.511.9
2016-Jan-31 15:33N 60°10' E 019°10'16516.2
2016-Jan-31 05:19N 57°30' E 017°50'1418.6
2016-Jan-31 04:34N 57°16' E 017°41'1918.6
2016-Jan-31 03:34N 56°59' E 017°28'10617.6
2016-Jan-30 21:33N 55°37' E 015°29'1919.3
2016-Jan-30 20:33N 55°28' E 014°59'1918.6
2016-Jan-30 19:33N 55°17' E 014°32'1918.9
2016-Jan-30 18:33N 55°03' E 014°10'1818.4
2016-Jan-30 17:33N 54°56' E 013°41'1918.7
2016-Jan-30 16:33N 54°50' E 013°10'1918.6
2016-Jan-30 15:33N 54°43' E 012°40'1817.8
2016-Jan-30 14:33N 54°31' E 012°17'1616.1
2016-Jan-30 13:33N 54°24' E 011°52'1919.2
2016-Jan-30 12:34N 54°32' E 011°21'1919.0
2016-Jan-30 11:34N 54°41' E 010°52'1717.3
2016-Jan-30 10:34N 54°58' E 010°58'1818.0
2016-Jan-30 09:33N 55°16' E 011°04'7915.9
2016-Jan-30 04:33N 56°33' E 011°39'1616.0
2016-Jan-30 03:33N 56°47' E 011°51'1817.7
2016-Jan-30 02:33N 57°04' E 011°40'1817.5
2016-Jan-30 01:33N 57°20' E 011°29'1717.5
2016-Jan-30 00:33N 57°35' E 011°10'1818.2
2016-Jan-29 23:33N 57°47' E 010°45'  

Dump ship's entire track history